createdAt,value
2023-07-23T00:01:10.900Z,99380.09
2023-07-23T00:03:37.932Z,99394.88
2023-07-23T00:06:06.231Z,99380.97
2023-07-23T00:08:33.272Z,99391.28
2023-07-23T00:11:00.241Z,99395.78
2023-07-23T00:13:27.379Z,99388.09
2023-07-23T00:15:54.654Z,99392.28
2023-07-23T00:18:21.641Z,99384.75
2023-07-23T00:20:48.778Z,99391.50
2023-07-23T00:23:15.946Z,99383.94
2023-07-23T00:25:43.531Z,99378.22
2023-07-23T00:28:10.555Z,99373.66
2023-07-23T00:30:37.704Z,99391.66
2023-07-23T00:33:04.699Z,99376.56
2023-07-23T00:35:31.740Z,99373.91
2023-07-23T00:37:58.982Z,99372.09
2023-07-23T00:40:26.022Z,99381.66
2023-07-23T00:42:53.175Z,99371.97
2023-07-23T00:45:21.112Z,99370.38
2023-07-23T00:47:48.220Z,99371.25
2023-07-23T00:50:16.428Z,99379.19
2023-07-23T00:52:44.370Z,99376.53
2023-07-23T00:55:11.388Z,99381.28
2023-07-23T00:57:38.455Z,99384.31
2023-07-23T01:02:59.609Z,99377.28
2023-07-23T01:05:27.396Z,99363.19
2023-07-23T01:07:55.076Z,99365.31
2023-07-23T01:10:22.548Z,99362.72
2023-07-23T01:12:50.662Z,99360.38
2023-07-23T01:15:17.772Z,99373.38
2023-07-23T01:17:45.816Z,99358.34
2023-07-23T01:20:13.892Z,99367.09
2023-07-23T01:22:40.819Z,99363.66
2023-07-23T01:25:08.181Z,99355.84
2023-07-23T01:27:35.465Z,99348.09
2023-07-23T01:30:02.699Z,99349.81
2023-07-23T01:32:29.646Z,99343.53
2023-07-23T01:35:07.484Z,99348.09
2023-07-23T01:37:34.374Z,99345.41
2023-07-23T01:40:01.570Z,99352.00
2023-07-23T01:42:28.812Z,99358.28
2023-07-23T01:44:55.785Z,99361.13
2023-07-23T01:47:24.177Z,99353.84
2023-07-23T01:49:51.818Z,99354.31
2023-07-23T01:52:18.691Z,99350.81
2023-07-23T01:54:45.555Z,99350.06
2023-07-23T01:57:12.383Z,99346.72
2023-07-23T01:59:39.692Z,99341.47
2023-07-23T02:02:10.582Z,99352.31
2023-07-23T02:04:37.613Z,99351.19
2023-07-23T02:07:04.866Z,99351.13
2023-07-23T02:09:31.967Z,99348.97
2023-07-23T02:11:58.899Z,99348.75
2023-07-23T02:14:25.906Z,99354.00
2023-07-23T02:16:52.723Z,99355.97
2023-07-23T02:19:19.812Z,99353.75
2023-07-23T02:21:46.805Z,99348.72
2023-07-23T02:24:13.810Z,99351.31
2023-07-23T02:26:40.695Z,99354.94
2023-07-23T02:29:07.688Z,99367.22
2023-07-23T02:31:34.558Z,99361.13
2023-07-23T02:34:01.387Z,99355.97
2023-07-23T02:36:28.341Z,99354.22
2023-07-23T02:38:55.377Z,99367.13
2023-07-23T02:41:22.343Z,99362.75
2023-07-23T02:43:49.310Z,99368.75
2023-07-23T02:46:16.349Z,99362.59
2023-07-23T02:48:43.316Z,99374.69
2023-07-23T02:51:10.219Z,99377.38
2023-07-23T02:53:37.144Z,99375.75
2023-07-23T02:56:04.136Z,99387.81
2023-07-23T02:58:31.092Z,99387.94
2023-07-23T03:00:58.231Z,99379.78
2023-07-23T03:03:26.108Z,99387.88
2023-07-23T03:05:53.144Z,99401.78
2023-07-23T03:08:20.191Z,99394.91
2023-07-23T03:10:47.090Z,99398.34
2023-07-23T03:13:14.250Z,99402.63
2023-07-23T03:15:41.052Z,99411.91
2023-07-23T03:18:07.966Z,99407.72
2023-07-23T03:20:35.002Z,99422.63
2023-07-23T03:23:01.907Z,99419.94
2023-07-23T03:25:28.733Z,99427.84
2023-07-23T03:27:57.958Z,99427.84
2023-07-23T03:30:24.785Z,99431.44
2023-07-23T03:32:51.756Z,99429.72
2023-07-23T03:35:18.708Z,99432.31
2023-07-23T03:37:45.789Z,99429.88
2023-07-23T03:40:12.996Z,99429.72
2023-07-23T03:42:39.880Z,99438.38
2023-07-23T03:45:07.458Z,99436.56
2023-07-23T03:47:34.403Z,99441.84
2023-07-23T03:50:01.492Z,99442.78
2023-07-23T03:52:28.501Z,99434.78
2023-07-23T03:54:55.393Z,99433.66
2023-07-23T03:57:22.337Z,99435.38
2023-07-23T03:59:49.219Z,99446.59
2023-07-23T04:14:59.529Z,99457.72
2023-07-23T04:17:26.479Z,99450.94
2023-07-23T04:19:53.408Z,99456.34
2023-07-23T04:22:20.913Z,99446.00
2023-07-23T04:24:48.260Z,99451.22
2023-07-23T04:27:16.061Z,99442.00
2023-07-23T04:29:43.247Z,99455.44
2023-07-23T04:32:10.101Z,99453.38
2023-07-23T04:34:37.435Z,99444.44
2023-07-23T04:37:05.064Z,99452.81
2023-07-23T04:39:31.981Z,99457.41
2023-07-23T04:41:59.193Z,99461.63
2023-07-23T04:44:26.504Z,99459.13
2023-07-23T04:46:53.339Z,99453.97
2023-07-23T04:49:20.244Z,99448.63
2023-07-23T04:51:47.252Z,99457.13
2023-07-23T04:54:14.295Z,99460.47
2023-07-23T04:56:41.355Z,99460.06
2023-07-23T04:59:08.895Z,99457.97
2023-07-23T05:01:36.142Z,99456.84
2023-07-23T05:04:03.504Z,99459.47
2023-07-23T05:06:30.572Z,99469.00
2023-07-23T05:08:57.762Z,99472.75
2023-07-23T05:11:25.035Z,99472.50
2023-07-23T05:13:52.181Z,99482.88
2023-07-23T05:16:19.171Z,99487.22
2023-07-23T05:18:46.525Z,99479.72
2023-07-23T05:21:13.643Z,99480.78
2023-07-23T05:23:40.554Z,99487.78
2023-07-23T05:26:07.478Z,99491.69
2023-07-23T05:28:35.013Z,99495.19
2023-07-23T05:31:02.022Z,99484.97
2023-07-23T05:33:29.233Z,99493.34
2023-07-23T05:35:56.433Z,99494.19
2023-07-23T05:38:23.411Z,99495.97
2023-07-23T05:40:58.126Z,99499.03
2023-07-23T05:43:27.970Z,99499.53
2023-07-23T05:45:56.682Z,99510.75
2023-07-23T05:48:23.743Z,99505.75
2023-07-23T05:50:50.854Z,99508.97
2023-07-23T05:53:17.807Z,99509.19
2023-07-23T05:55:44.623Z,99508.88
2023-07-23T05:58:11.573Z,99504.53
2023-07-23T06:00:38.465Z,99518.72
2023-07-23T06:03:05.467Z,99514.47
2023-07-23T06:05:32.442Z,99520.47
2023-07-23T06:07:59.289Z,99515.75
2023-07-23T06:10:26.162Z,99515.63
2023-07-23T06:12:53.228Z,99519.19
2023-07-23T06:15:21.779Z,99524.66
2023-07-23T06:17:48.850Z,99522.81
2023-07-23T06:20:15.864Z,99524.94
2023-07-23T06:22:43.347Z,99522.38
2023-07-23T06:25:10.639Z,99522.53
2023-07-23T06:27:37.704Z,99521.56
2023-07-23T06:30:04.861Z,99520.13
2023-07-23T06:32:31.792Z,99522.69
2023-07-23T06:34:58.772Z,99520.97
2023-07-23T06:37:25.665Z,99517.91
2023-07-23T06:39:52.553Z,99526.47
2023-07-23T06:42:19.437Z,99522.44
2023-07-23T06:44:46.348Z,99527.59
2023-07-23T06:47:15.070Z,99521.63
2023-07-23T06:49:41.965Z,99532.50
2023-07-23T06:52:09.550Z,99530.56
2023-07-23T06:54:40.031Z,99529.97
2023-07-23T06:57:07.183Z,99525.75
2023-07-23T06:59:34.236Z,99530.03
2023-07-23T07:02:01.154Z,99526.97
2023-07-23T07:04:30.411Z,99518.84
2023-07-23T07:06:57.563Z,99526.69
2023-07-23T07:09:24.956Z,99523.38
2023-07-23T07:11:53.309Z,99522.75
2023-07-23T07:14:20.206Z,99523.38
2023-07-23T07:16:47.342Z,99524.31
2023-07-23T07:19:14.989Z,99528.38
2023-07-23T07:21:41.929Z,99523.22
2023-07-23T07:24:09.003Z,99527.59
2023-07-23T07:26:36.059Z,99530.38
2023-07-23T07:29:04.063Z,99534.75
2023-07-23T07:31:31.332Z,99531.88
2023-07-23T07:33:59.432Z,99536.09
2023-07-23T07:36:26.282Z,99534.31
2023-07-23T07:38:53.091Z,99533.78
2023-07-23T07:41:19.991Z,99536.03
2023-07-23T07:43:47.038Z,99535.53
2023-07-23T07:46:13.930Z,99537.31
2023-07-23T07:48:40.804Z,99533.25
2023-07-23T07:51:08.310Z,99538.53
2023-07-23T07:53:36.651Z,99540.09
2023-07-23T07:56:04.751Z,99543.44
2023-07-23T07:58:32.130Z,99539.00
2023-07-23T08:01:00.743Z,99541.59
2023-07-23T08:03:31.065Z,99549.47
2023-07-23T08:05:59.647Z,99533.94
2023-07-23T08:08:29.314Z,99546.44
2023-07-23T08:10:58.243Z,99533.22
2023-07-23T08:13:26.031Z,99542.63
2023-07-23T08:15:55.775Z,99533.16
2023-07-23T08:18:23.845Z,99531.41
2023-07-23T08:20:50.870Z,99539.91
2023-07-23T08:23:18.019Z,99534.63
2023-07-23T08:25:50.658Z,99539.81
2023-07-23T08:28:26.762Z,99542.94
2023-07-23T08:30:55.741Z,99542.25
2023-07-23T08:33:26.594Z,99544.06
2023-07-23T08:35:53.786Z,99542.66
2023-07-23T08:38:20.953Z,99539.59
2023-07-23T08:40:50.924Z,99519.97
2023-07-23T08:43:46.665Z,99525.19
2023-07-23T08:46:26.392Z,99521.75
2023-07-23T08:48:55.984Z,99532.91
2023-07-23T08:51:28.383Z,99529.69
2023-07-23T08:53:58.067Z,99532.63
2023-07-23T08:56:25.450Z,99519.47
2023-07-23T08:58:53.846Z,99525.84
2023-07-23T09:01:20.828Z,99520.91
2023-07-23T09:03:48.387Z,99517.47
2023-07-23T09:06:16.287Z,99516.53
2023-07-23T09:08:43.137Z,99516.22
2023-07-23T09:11:11.904Z,99520.03
2023-07-23T09:13:39.163Z,99511.97
2023-07-23T09:16:06.589Z,99515.53
2023-07-23T09:18:39.600Z,99506.19
2023-07-23T09:21:07.636Z,99522.91
2023-07-23T09:23:36.634Z,99512.41
2023-07-23T09:26:03.584Z,99533.09
2023-07-23T09:28:30.572Z,99514.84
2023-07-23T09:31:00.245Z,99526.63
2023-07-23T09:33:37.942Z,99512.31
2023-07-23T09:36:06.858Z,99523.69
2023-07-23T09:38:35.161Z,99512.47
2023-07-23T09:41:02.221Z,99520.31
2023-07-23T09:43:29.607Z,99515.16
2023-07-23T09:45:56.815Z,99519.22
2023-07-23T09:48:24.711Z,99517.75
2023-07-23T09:50:57.445Z,99516.25
2023-07-23T09:53:24.365Z,99516.00
2023-07-23T09:55:51.992Z,99524.50
2023-07-23T09:58:21.865Z,99524.03
2023-07-23T10:00:51.176Z,99508.47
2023-07-23T10:03:18.979Z,99501.59
2023-07-23T10:05:46.910Z,99507.47
2023-07-23T10:08:15.601Z,99513.44
2023-07-23T10:10:43.097Z,99509.75
2023-07-23T10:13:10.031Z,99508.38
2023-07-23T10:15:39.869Z,99506.47
2023-07-23T10:18:08.325Z,99494.16
2023-07-23T10:20:35.658Z,99501.66
2023-07-23T10:23:06.745Z,99505.00
2023-07-23T10:25:40.499Z,99507.13
2023-07-23T10:28:11.758Z,99502.38
2023-07-23T10:30:39.077Z,99491.03
2023-07-23T10:33:26.334Z,99492.59
2023-07-23T10:35:53.294Z,99488.31
2023-07-23T10:38:25.237Z,99494.63
2023-07-23T10:40:52.450Z,99479.78
2023-07-23T10:43:19.663Z,99478.00
2023-07-23T10:45:52.838Z,99472.13
2023-07-23T10:48:19.990Z,99464.13
2023-07-23T10:51:11.838Z,99478.91
2023-07-23T10:54:04.199Z,99472.72
2023-07-23T10:56:40.592Z,99464.75
2023-07-23T10:59:22.979Z,99463.53
2023-07-23T11:01:53.019Z,99462.56
2023-07-23T11:04:26.649Z,99464.53
2023-07-23T11:07:01.950Z,99458.31
2023-07-23T11:09:32.689Z,99459.44
2023-07-23T11:12:01.067Z,99468.13
2023-07-23T11:14:29.690Z,99468.63
2023-07-23T11:17:02.616Z,99481.09
2023-07-23T11:19:31.094Z,99465.78
2023-07-23T11:22:00.621Z,99464.19
2023-07-23T11:24:29.921Z,99459.59
2023-07-23T11:27:04.064Z,99457.28
2023-07-23T11:29:35.003Z,99461.00
2023-07-23T11:32:03.788Z,99456.59
2023-07-23T11:34:35.854Z,99451.59
2023-07-23T11:37:04.062Z,99450.63
2023-07-23T11:39:30.971Z,99448.44
2023-07-23T11:41:57.942Z,99459.25
2023-07-23T11:44:24.956Z,99445.63
2023-07-23T11:47:02.991Z,99446.66
2023-07-23T11:49:30.265Z,99442.25
2023-07-23T11:51:59.944Z,99431.34
2023-07-23T11:54:26.875Z,99437.16
2023-07-23T11:56:53.710Z,99428.00
2023-07-23T11:59:20.612Z,99442.47
2023-07-23T12:04:39.382Z,99436.44
2023-07-23T12:07:10.270Z,99443.56
2023-07-23T12:09:37.203Z,99434.31
2023-07-23T12:12:04.522Z,99429.63
2023-07-23T12:14:31.507Z,99438.19
2023-07-23T12:16:58.871Z,99435.91
2023-07-23T12:19:25.834Z,99438.50
2023-07-23T12:21:55.154Z,99431.09
2023-07-23T12:24:30.224Z,99424.84
2023-07-23T12:26:58.862Z,99432.19
2023-07-23T12:29:27.649Z,99429.94
2023-07-23T12:32:15.079Z,99422.00
2023-07-23T12:34:49.083Z,99419.66
2023-07-23T12:37:17.655Z,99421.69
2023-07-23T12:39:48.190Z,99427.59
2023-07-23T12:42:15.700Z,99427.03
2023-07-23T12:44:42.786Z,99420.72
2023-07-23T12:47:09.962Z,99415.16
2023-07-23T12:49:36.858Z,99423.38
2023-07-23T12:52:04.730Z,99425.84
2023-07-23T12:54:31.797Z,99424.59
2023-07-23T12:56:58.931Z,99421.81
2023-07-23T12:59:26.436Z,99418.28
2023-07-23T13:01:53.503Z,99413.47
2023-07-23T13:04:20.647Z,99414.41
2023-07-23T13:06:49.885Z,99408.66
2023-07-23T13:09:18.251Z,99403.53
2023-07-23T13:11:45.288Z,99412.25
2023-07-23T13:14:12.198Z,99406.19
2023-07-23T13:16:39.312Z,99399.91
2023-07-23T13:19:06.185Z,99396.81
2023-07-23T13:21:33.402Z,99397.81
2023-07-23T13:24:00.282Z,99401.09
2023-07-23T13:26:27.509Z,99402.59
2023-07-23T13:28:54.777Z,99395.13
2023-07-23T13:31:21.807Z,99387.16
2023-07-23T13:33:48.722Z,99379.13
2023-07-23T13:36:16.485Z,99381.31
2023-07-23T13:38:43.406Z,99375.78
2023-07-23T13:41:10.390Z,99366.88
2023-07-23T13:43:37.443Z,99354.00
2023-07-23T13:46:04.274Z,99360.31
2023-07-23T13:48:31.343Z,99354.66
2023-07-23T13:50:58.321Z,99350.38
2023-07-23T13:53:25.176Z,99344.81
2023-07-23T13:55:52.671Z,99347.94
2023-07-23T13:58:19.756Z,99353.16
2023-07-23T14:00:46.933Z,99345.31
2023-07-23T14:03:14.193Z,99341.47
2023-07-23T14:05:41.219Z,99354.16
2023-07-23T14:08:08.120Z,99354.78
2023-07-23T14:10:36.651Z,99343.97
2023-07-23T14:13:04.187Z,99349.84
2023-07-23T14:15:31.301Z,99342.47
2023-07-23T14:18:00.976Z,99340.06
2023-07-23T14:20:28.418Z,99321.03
2023-07-23T14:22:55.757Z,99319.88
2023-07-23T14:25:23.455Z,99333.28
2023-07-23T14:27:50.923Z,99325.78
2023-07-23T14:30:21.497Z,99324.13
2023-07-23T14:32:48.528Z,99317.69
2023-07-23T14:35:15.759Z,99322.75
2023-07-23T14:37:42.648Z,99317.09
2023-07-23T14:40:10.241Z,99315.81
2023-07-23T14:42:37.224Z,99309.59
2023-07-23T14:45:06.798Z,99304.16
2023-07-23T14:47:33.734Z,99320.22
2023-07-23T14:50:00.813Z,99307.78
2023-07-23T14:52:27.734Z,99309.88
2023-07-23T14:54:54.683Z,99300.53
2023-07-23T14:57:21.584Z,99305.88
2023-07-23T14:59:48.425Z,99294.31
2023-07-23T15:02:15.367Z,99302.38
2023-07-23T15:04:42.461Z,99299.53
2023-07-23T15:07:09.795Z,99297.66
2023-07-23T15:09:36.623Z,99298.91
2023-07-23T15:12:03.908Z,99295.00
2023-07-23T15:14:31.174Z,99301.25
2023-07-23T15:16:58.520Z,99299.88
2023-07-23T15:19:25.773Z,99292.94
2023-07-23T15:21:52.988Z,99296.03
2023-07-23T15:24:20.197Z,99294.59
2023-07-23T15:26:48.906Z,99290.59
2023-07-23T15:29:16.816Z,99286.03
2023-07-23T15:31:43.802Z,99291.16
2023-07-23T15:34:10.752Z,99283.16
2023-07-23T15:36:37.599Z,99295.50
2023-07-23T15:39:04.484Z,99292.38
2023-07-23T15:41:31.726Z,99283.94
2023-07-23T15:43:58.727Z,99291.03
2023-07-23T15:46:25.893Z,99280.53
2023-07-23T15:48:52.945Z,99282.91
2023-07-23T15:51:19.993Z,99268.97
2023-07-23T15:53:46.845Z,99275.25
2023-07-23T15:56:13.769Z,99270.47
2023-07-23T15:58:40.760Z,99259.31
2023-07-23T16:01:07.655Z,99260.44
2023-07-23T16:03:35.362Z,99266.28
2023-07-23T16:06:02.434Z,99267.88
2023-07-23T16:08:29.444Z,99268.63
2023-07-23T16:10:56.486Z,99257.19
2023-07-23T16:13:23.541Z,99248.66
2023-07-23T16:15:51.234Z,99255.03
2023-07-23T16:18:18.181Z,99260.19
2023-07-23T16:20:45.552Z,99259.63
2023-07-23T16:23:12.545Z,99261.75
2023-07-23T16:25:44.562Z,99253.81
2023-07-23T16:28:15.680Z,99263.13
2023-07-23T16:30:42.834Z,99257.50
2023-07-23T16:33:10.384Z,99251.97
2023-07-23T16:35:38.202Z,99254.81
2023-07-23T16:38:12.895Z,99256.50
2023-07-23T16:40:47.584Z,99264.72
2023-07-23T16:43:19.491Z,99256.59
2023-07-23T16:45:49.851Z,99269.47
2023-07-23T16:48:16.878Z,99255.94
2023-07-23T16:50:43.890Z,99265.47
2023-07-23T16:53:12.263Z,99248.41
2023-07-23T16:55:39.264Z,99260.16
2023-07-23T16:58:07.749Z,99259.53
2023-07-23T17:00:34.580Z,99254.47
2023-07-23T17:03:01.552Z,99254.97
2023-07-23T17:05:28.758Z,99249.94
2023-07-23T17:07:55.639Z,99262.19
2023-07-23T17:10:22.640Z,99259.16
2023-07-23T17:12:49.530Z,99264.00
2023-07-23T17:15:16.438Z,99254.78
2023-07-23T17:17:43.390Z,99252.75
2023-07-23T17:20:10.647Z,99250.97
2023-07-23T17:22:37.512Z,99252.06
2023-07-23T17:25:04.750Z,99259.91
2023-07-23T17:27:31.701Z,99257.59
2023-07-23T17:29:58.559Z,99262.28
2023-07-23T17:32:26.311Z,99259.97
2023-07-23T17:34:53.728Z,99258.44
2023-07-23T17:37:20.969Z,99256.97
2023-07-23T17:39:47.892Z,99255.34
2023-07-23T17:42:14.980Z,99250.13
2023-07-23T17:44:41.924Z,99254.22
2023-07-23T17:47:09.273Z,99257.84
2023-07-23T17:49:36.310Z,99259.97
2023-07-23T17:52:03.404Z,99264.78
2023-07-23T17:54:31.263Z,99268.38
2023-07-23T17:57:01.537Z,99269.31
2023-07-23T17:59:28.561Z,99263.31
2023-07-23T18:01:56.040Z,99262.53
2023-07-23T18:04:23.125Z,99251.50
2023-07-23T18:06:49.973Z,99262.38
2023-07-23T18:09:17.580Z,99260.91
2023-07-23T18:11:44.544Z,99261.25
2023-07-23T18:14:11.634Z,99258.94
2023-07-23T18:16:38.704Z,99253.28
2023-07-23T18:19:05.872Z,99250.94
2023-07-23T18:21:32.884Z,99257.75
2023-07-23T18:23:59.782Z,99265.81
2023-07-23T18:26:27.151Z,99271.22
2023-07-23T18:28:54.888Z,99265.34
2023-07-23T18:31:32.996Z,99268.00
2023-07-23T18:34:01.980Z,99269.34
2023-07-23T18:36:29.220Z,99270.44
2023-07-23T18:38:56.349Z,99272.16
2023-07-23T18:41:30.461Z,99270.44
2023-07-23T18:43:57.507Z,99263.84
2023-07-23T18:46:24.848Z,99279.78
2023-07-23T18:48:53.346Z,99264.41
2023-07-23T18:51:21.196Z,99270.50
2023-07-23T18:53:48.450Z,99265.56
2023-07-23T18:56:15.808Z,99272.84
2023-07-23T18:58:43.019Z,99279.53
2023-07-23T19:01:10.003Z,99277.25
2023-07-23T19:03:39.143Z,99271.50
2023-07-23T19:06:12.871Z,99276.91
2023-07-23T19:08:40.522Z,99275.28
2023-07-23T19:11:08.068Z,99273.63
2023-07-23T19:13:34.984Z,99282.75
2023-07-23T19:16:02.172Z,99271.13
2023-07-23T19:18:29.240Z,99281.63
2023-07-23T19:20:56.416Z,99274.38
2023-07-23T19:23:23.415Z,99271.78
2023-07-23T19:25:50.555Z,99272.94
2023-07-23T19:28:17.421Z,99277.41
2023-07-23T19:30:45.305Z,99281.75
2023-07-23T19:33:12.359Z,99273.03
2023-07-23T19:35:39.430Z,99287.72
2023-07-23T19:38:07.149Z,99280.03
2023-07-23T19:40:34.085Z,99285.97
2023-07-23T19:43:01.185Z,99276.66
2023-07-23T19:45:28.371Z,99275.66
2023-07-23T19:47:55.590Z,99279.50
2023-07-23T19:50:23.436Z,99280.09
2023-07-23T19:52:50.529Z,99271.19
2023-07-23T19:55:17.999Z,99270.16
2023-07-23T19:57:44.885Z,99272.94
2023-07-23T20:04:32.628Z,99260.69
2023-07-23T20:06:59.760Z,99254.66
2023-07-23T20:09:26.610Z,99257.22
2023-07-23T20:11:53.838Z,99257.09
2023-07-23T20:14:20.716Z,99263.91
2023-07-23T20:16:48.081Z,99265.63
2023-07-23T20:19:15.107Z,99265.97
2023-07-23T20:21:44.897Z,99275.31
2023-07-23T20:24:16.199Z,99265.19
2023-07-23T20:26:43.729Z,99271.97
2023-07-23T20:29:10.955Z,99269.28
2023-07-23T20:31:38.209Z,99259.66
2023-07-23T20:34:06.348Z,99257.28
2023-07-23T20:36:34.236Z,99259.19
2023-07-23T20:39:03.768Z,99253.31
2023-07-23T20:41:32.090Z,99255.34
2023-07-23T20:43:59.209Z,99252.78
2023-07-23T20:46:30.816Z,99256.38
2023-07-23T20:48:58.077Z,99253.03
2023-07-23T20:51:25.280Z,99258.50
2023-07-23T20:53:52.131Z,99253.28
2023-07-23T20:56:19.744Z,99258.75
2023-07-23T20:58:46.618Z,99268.72
2023-07-23T21:01:13.690Z,99265.28
2023-07-23T21:03:40.706Z,99261.00
2023-07-23T21:06:07.795Z,99261.94
2023-07-23T21:08:34.662Z,99264.75
2023-07-23T21:11:01.610Z,99269.13
2023-07-23T21:13:28.730Z,99258.84
2023-07-23T21:15:59.512Z,99259.16
2023-07-23T21:18:26.556Z,99252.69
2023-07-23T21:20:53.683Z,99242.94
2023-07-23T21:23:20.691Z,99248.94
2023-07-23T21:25:47.730Z,99242.00
2023-07-23T21:28:14.776Z,99250.00
2023-07-23T21:30:45.018Z,99252.63
2023-07-23T21:33:12.366Z,99256.47
2023-07-23T21:35:41.482Z,99250.72
2023-07-23T21:38:10.292Z,99247.91
2023-07-23T21:40:37.773Z,99252.41
2023-07-23T21:43:04.838Z,99248.94
2023-07-23T21:45:31.844Z,99242.00
2023-07-23T21:48:00.658Z,99241.91
2023-07-23T21:50:27.632Z,99235.41
2023-07-23T21:52:55.385Z,99250.31
2023-07-23T21:55:22.422Z,99247.59
2023-07-23T21:57:49.432Z,99241.69
2023-07-23T22:00:16.375Z,99249.28
2023-07-23T22:02:43.517Z,99250.94
2023-07-23T22:05:11.120Z,99240.38
2023-07-23T22:07:38.570Z,99242.13
2023-07-23T22:10:08.247Z,99239.38
2023-07-23T22:12:36.009Z,99234.19
2023-07-23T22:15:03.567Z,99238.66
2023-07-23T22:17:30.932Z,99244.81
2023-07-23T22:19:58.030Z,99249.28
2023-07-23T22:22:25.030Z,99246.00
2023-07-23T22:24:51.985Z,99245.97
2023-07-23T22:27:18.974Z,99252.22
2023-07-23T22:29:45.859Z,99250.25
2023-07-23T22:32:13.072Z,99253.13
2023-07-23T22:34:40.024Z,99239.25
2023-07-23T22:37:07.074Z,99252.34
2023-07-23T22:39:34.134Z,99260.19
2023-07-23T22:42:01.122Z,99261.25
2023-07-23T22:44:28.387Z,99256.19
2023-07-23T22:46:55.610Z,99253.47
2023-07-23T22:49:22.547Z,99252.63
2023-07-23T22:51:49.463Z,99253.31
2023-07-23T22:54:17.673Z,99248.19
2023-07-23T22:56:44.918Z,99245.81
2023-07-23T22:59:12.080Z,99244.53
2023-07-23T23:01:39.177Z,99240.53
2023-07-23T23:04:06.320Z,99229.88
2023-07-23T23:06:34.445Z,99227.59
2023-07-23T23:09:01.766Z,99227.75
2023-07-23T23:11:29.235Z,99222.69
2023-07-23T23:13:56.162Z,99219.88
2023-07-23T23:16:23.224Z,99222.06
2023-07-23T23:18:50.223Z,99237.44
2023-07-23T23:21:17.196Z,99229.19
2023-07-23T23:23:44.266Z,99216.66
2023-07-23T23:26:11.315Z,99219.88
2023-07-23T23:28:38.377Z,99206.81
2023-07-23T23:31:05.963Z,99209.78
2023-07-23T23:33:33.134Z,99206.13
2023-07-23T23:36:00.500Z,99206.00
2023-07-23T23:38:28.005Z,99199.53
2023-07-23T23:40:55.762Z,99201.06
2023-07-23T23:43:23.370Z,99202.56
2023-07-23T23:45:51.075Z,99199.88
2023-07-23T23:48:18.390Z,99196.31
2023-07-23T23:50:45.642Z,99190.97
2023-07-23T23:53:14.501Z,99190.97
2023-07-23T23:55:41.550Z,99199.47
2023-07-23T23:58:08.777Z,99202.03
